createdAt,value
2018-03-20T00:00:23.204Z,69.50
2018-03-20T00:02:52.213Z,68.00
2018-03-20T00:05:20.445Z,68.00
2018-03-20T00:07:48.692Z,68.10
2018-03-20T00:10:16.921Z,67.50
2018-03-20T00:12:45.166Z,67.10
2018-03-20T00:15:13.397Z,67.10
2018-03-20T00:17:41.647Z,67.00
2018-03-20T00:20:09.882Z,66.60
2018-03-20T00:22:38.128Z,66.10
2018-03-20T00:25:06.370Z,64.40
2018-03-20T00:27:35.380Z,63.50
2018-03-20T00:30:03.636Z,63.50
2018-03-20T00:32:31.885Z,64.00
2018-03-20T00:35:00.888Z,63.40
2018-03-20T00:37:29.907Z,62.80
2018-03-20T00:39:58.136Z,62.70
2018-03-20T00:42:26.388Z,63.10
2018-03-20T00:44:54.612Z,62.70
2018-03-20T00:47:23.619Z,61.30
2018-03-20T00:49:51.855Z,61.30
2018-03-20T00:52:20.868Z,63.10
2018-03-20T00:54:49.108Z,63.10
2018-03-20T00:57:17.352Z,66.90
2018-03-20T00:59:45.585Z,69.10
2018-03-20T01:02:13.841Z,69.30
2018-03-20T01:04:42.069Z,69.20
2018-03-20T01:07:10.321Z,69.00
2018-03-20T01:09:38.591Z,69.20
2018-03-20T01:12:06.788Z,69.50
2018-03-20T01:14:35.029Z,70.20
2018-03-20T01:17:03.281Z,70.80
2018-03-20T01:19:32.317Z,70.30
2018-03-20T01:22:00.547Z,70.30
2018-03-20T01:24:29.561Z,71.60
2018-03-20T01:26:57.791Z,71.40
2018-03-20T01:29:26.060Z,71.70
2018-03-20T01:31:54.256Z,72.20
2018-03-20T01:34:23.273Z,71.90
2018-03-20T01:36:51.510Z,71.20
2018-03-20T01:39:19.757Z,71.10
2018-03-20T01:41:47.988Z,71.60
2018-03-20T01:44:16.236Z,71.80
2018-03-20T01:46:44.465Z,72.20
2018-03-20T01:49:12.713Z,71.90
2018-03-20T01:51:40.940Z,71.80
2018-03-20T01:54:09.193Z,72.20
2018-03-20T01:56:37.417Z,72.70
2018-03-20T01:59:06.432Z,73.60
2018-03-20T02:01:34.663Z,73.60
2018-03-20T02:04:02.927Z,74.50
2018-03-20T02:06:31.144Z,76.50
2018-03-20T02:08:59.396Z,78.30
2018-03-20T02:11:27.620Z,79.60
2018-03-20T02:13:55.876Z,80.50
2018-03-20T02:16:24.522Z,81.00
2018-03-20T02:18:52.748Z,81.10
2018-03-20T02:21:20.995Z,81.70
2018-03-20T02:23:49.988Z,83.50
2018-03-20T02:26:18.245Z,83.50
2018-03-20T02:28:47.244Z,85.40
2018-03-20T02:31:16.261Z,86.00
2018-03-20T02:33:44.501Z,86.00
2018-03-20T02:36:13.524Z,87.20
2018-03-20T02:38:41.758Z,87.20
2018-03-20T02:41:10.012Z,87.40
2018-03-20T02:43:38.252Z,87.70
2018-03-20T02:46:06.500Z,88.00
2018-03-20T02:48:35.501Z,88.10
2018-03-20T02:51:03.783Z,88.10
2018-03-20T02:53:32.744Z,88.60
2018-03-20T02:56:01.756Z,88.60
2018-03-20T02:58:29.995Z,88.60
2018-03-20T03:00:58.240Z,88.80
2018-03-20T03:03:27.243Z,89.50
2018-03-20T03:05:55.497Z,89.50
2018-03-20T03:08:23.729Z,89.80
2018-03-20T03:10:52.744Z,90.00
2018-03-20T03:13:20.977Z,90.00
2018-03-20T03:15:49.217Z,90.10
2018-03-20T03:18:17.458Z,90.10
2018-03-20T03:20:45.709Z,90.20
2018-03-20T03:23:14.715Z,90.40
2018-03-20T03:25:43.728Z,90.60
2018-03-20T03:28:11.964Z,90.60
2018-03-20T03:30:41.000Z,90.90
2018-03-20T03:33:09.541Z,90.90
2018-03-20T03:35:38.532Z,91.60
2018-03-20T03:38:07.539Z,91.20
2018-03-20T03:40:35.778Z,91.20
2018-03-20T03:43:04.017Z,91.30
2018-03-20T03:45:32.260Z,91.30
2018-03-20T03:48:00.513Z,91.60
2018-03-20T03:50:29.516Z,91.60
2018-03-20T03:52:58.536Z,91.50
2018-03-20T03:55:26.776Z,91.50
2018-03-20T03:57:55.791Z,91.50
2018-03-20T04:00:24.029Z,91.50
2018-03-20T04:02:52.268Z,91.70
2018-03-20T04:05:20.898Z,91.70
2018-03-20T04:07:49.896Z,91.50
2018-03-20T04:10:18.897Z,91.60
2018-03-20T04:12:47.157Z,91.60
2018-03-20T04:15:16.162Z,91.60
2018-03-20T04:17:45.168Z,91.70
2018-03-20T04:20:13.406Z,91.70
2018-03-20T04:22:42.832Z,91.90
2018-03-20T04:25:11.063Z,91.90
2018-03-20T04:27:39.315Z,91.90
2018-03-20T04:30:07.552Z,91.70
2018-03-20T04:32:35.807Z,92.00
2018-03-20T04:35:04.803Z,91.70
2018-03-20T04:37:33.901Z,91.80
2018-03-20T04:40:02.116Z,91.80
2018-03-20T04:42:30.385Z,91.80
2018-03-20T04:44:58.619Z,91.60
2018-03-20T04:47:27.612Z,91.50
2018-03-20T04:49:56.624Z,91.50
2018-03-20T04:52:24.860Z,91.50
2018-03-20T04:54:53.885Z,91.20
2018-03-20T04:57:22.122Z,91.20
2018-03-20T04:59:50.369Z,91.30
2018-03-20T05:02:18.610Z,91.40
2018-03-20T05:04:46.852Z,91.30
2018-03-20T05:07:15.856Z,91.30
2018-03-20T05:09:44.868Z,91.40
2018-03-20T05:12:13.138Z,91.30
2018-03-20T05:14:41.356Z,91.40
2018-03-20T05:17:09.577Z,91.40
2018-03-20T05:19:43.485Z,91.40
2018-03-20T05:22:27.491Z,91.40
2018-03-20T05:24:55.727Z,91.30
2018-03-20T05:27:23.965Z,91.40
2018-03-20T05:29:53.039Z,91.60
2018-03-20T05:32:21.244Z,91.50
2018-03-20T05:34:49.710Z,91.70
2018-03-20T05:37:18.700Z,91.40
2018-03-20T05:39:47.699Z,91.50
2018-03-20T05:42:15.932Z,91.40
2018-03-20T05:44:44.184Z,91.50
2018-03-20T05:47:27.290Z,91.60
2018-03-20T05:50:01.282Z,91.50
2018-03-20T05:52:29.518Z,91.50
2018-03-20T05:54:57.756Z,91.50
2018-03-20T05:57:25.983Z,91.40
2018-03-20T05:59:54.993Z,91.10
2018-03-20T06:02:23.230Z,91.10
2018-03-20T06:04:51.468Z,91.20
2018-03-20T06:07:19.711Z,91.20
2018-03-20T06:09:48.704Z,91.10
2018-03-20T06:12:16.946Z,91.10
2018-03-20T06:14:45.173Z,91.10
2018-03-20T06:17:13.421Z,91.10
2018-03-20T06:19:41.659Z,91.10
2018-03-20T06:22:09.891Z,91.10
2018-03-20T06:24:38.127Z,91.10
2018-03-20T06:27:07.136Z,91.10
2018-03-20T06:29:35.367Z,91.00
2018-03-20T06:32:03.612Z,91.20
2018-03-20T06:34:31.850Z,91.20
2018-03-20T06:37:00.861Z,91.50
2018-03-20T06:39:29.089Z,91.50
2018-03-20T06:41:57.327Z,91.70
2018-03-20T06:44:25.576Z,91.70
2018-03-20T06:46:54.578Z,91.70
2018-03-20T06:49:22.812Z,91.70
2018-03-20T06:51:51.829Z,91.50
2018-03-20T06:54:20.059Z,91.30
2018-03-20T06:56:48.296Z,91.00
2018-03-20T06:59:16.526Z,90.80
2018-03-20T07:01:44.764Z,90.40
2018-03-20T07:04:12.979Z,89.50
2018-03-20T07:06:41.988Z,87.00
2018-03-20T07:09:10.225Z,86.90
2018-03-20T07:11:38.448Z,86.30
2018-03-20T07:14:06.692Z,85.50
2018-03-20T07:16:35.712Z,85.00
2018-03-20T07:19:03.961Z,85.00
2018-03-20T07:21:32.936Z,83.60
2018-03-20T07:24:01.164Z,83.20
2018-03-20T07:26:29.384Z,82.00
2018-03-20T07:28:57.615Z,81.40
2018-03-20T07:31:25.832Z,82.10
2018-03-20T07:33:54.062Z,81.70
2018-03-20T07:36:22.286Z,82.20
2018-03-20T07:38:50.503Z,81.60
2018-03-20T07:41:18.720Z,81.40
2018-03-20T07:43:46.952Z,81.40
2018-03-20T07:46:15.182Z,81.20
2018-03-20T07:48:43.395Z,81.20
2018-03-20T07:51:11.619Z,80.00
2018-03-20T07:53:39.852Z,80.00
2018-03-20T07:56:08.069Z,80.00
2018-03-20T07:58:36.298Z,79.20
2018-03-20T08:01:04.564Z,79.10
2018-03-20T08:03:32.801Z,79.20
2018-03-20T08:06:01.790Z,78.50
2018-03-20T08:08:30.794Z,78.50
2018-03-20T08:10:59.776Z,78.20
2018-03-20T08:13:28.776Z,77.40
2018-03-20T08:15:57.757Z,76.30
2018-03-20T08:18:26.767Z,75.80
2018-03-20T08:20:54.988Z,75.80
2018-03-20T08:23:23.208Z,75.70
2018-03-20T08:25:51.484Z,75.10
2018-03-20T08:28:19.765Z,74.80
2018-03-20T08:30:48.003Z,73.40
2018-03-20T08:33:16.213Z,73.70
2018-03-20T08:35:44.448Z,73.50
2018-03-20T08:38:12.668Z,71.90
2018-03-20T08:40:40.926Z,71.80
2018-03-20T08:43:09.141Z,71.80
2018-03-20T08:45:37.381Z,71.20
2018-03-20T08:48:05.607Z,70.80
2018-03-20T08:50:34.207Z,70.70
2018-03-20T08:53:02.400Z,70.00
2018-03-20T08:55:30.641Z,69.70
2018-03-20T08:57:58.852Z,69.50
2018-03-20T09:00:27.088Z,69.60
2018-03-20T09:02:55.306Z,70.40
2018-03-20T09:05:23.536Z,66.70
2018-03-20T09:07:51.848Z,67.10
2018-03-20T09:10:20.088Z,65.30
2018-03-20T09:12:48.305Z,66.20
2018-03-20T09:15:16.531Z,63.50
2018-03-20T09:17:44.756Z,62.40
2018-03-20T09:20:12.996Z,61.30
2018-03-20T09:22:41.983Z,61.80
2018-03-20T09:25:10.984Z,62.40
2018-03-20T09:27:39.968Z,64.40
2018-03-20T09:30:08.969Z,64.50
2018-03-20T09:32:37.969Z,62.30
2018-03-20T09:35:06.180Z,62.30
2018-03-20T09:37:34.521Z,60.30
2018-03-20T09:40:02.740Z,59.50
2018-03-20T09:42:30.972Z,59.80
2018-03-20T09:44:59.189Z,59.00
2018-03-20T09:47:27.416Z,59.50
2018-03-20T09:49:55.624Z,57.90
2018-03-20T09:52:23.861Z,56.80
2018-03-20T09:54:52.083Z,56.30
2018-03-20T09:57:20.311Z,57.00
2018-03-20T09:59:48.521Z,55.80
2018-03-20T10:02:16.755Z,58.10
2018-03-20T10:04:44.973Z,56.10
2018-03-20T10:07:13.212Z,57.20
2018-03-20T10:09:41.749Z,57.00
2018-03-20T10:12:09.980Z,55.60
2018-03-20T10:14:38.193Z,55.00
2018-03-20T10:17:06.420Z,54.60
2018-03-20T10:19:34.644Z,55.00
2018-03-20T10:22:03.722Z,54.00
2018-03-20T10:24:31.943Z,53.90
2018-03-20T10:27:00.170Z,52.50
2018-03-20T10:29:28.383Z,52.50
2018-03-20T10:31:56.624Z,53.40
2018-03-20T10:34:24.836Z,52.30
2018-03-20T10:36:53.073Z,52.60
2018-03-20T10:39:21.296Z,50.90
2018-03-20T10:41:49.516Z,50.60
2018-03-20T10:44:17.743Z,50.60
2018-03-20T10:46:45.963Z,49.40
2018-03-20T10:49:14.188Z,48.30
2018-03-20T10:51:42.725Z,48.50
2018-03-20T10:54:10.947Z,48.30
2018-03-20T10:56:39.164Z,48.10
2018-03-20T10:59:07.393Z,47.80
2018-03-20T11:01:41.456Z,47.60
2018-03-20T11:04:10.456Z,45.60
2018-03-20T11:06:39.444Z,46.40
2018-03-20T11:09:08.528Z,45.70
2018-03-20T11:11:36.757Z,45.60
2018-03-20T11:14:04.979Z,46.30
2018-03-20T11:16:33.969Z,45.20
2018-03-20T11:19:02.291Z,45.30
2018-03-20T11:21:30.432Z,44.80
2018-03-20T11:23:59.442Z,44.00
2018-03-20T11:26:27.657Z,44.00
2018-03-20T11:28:55.888Z,44.50
2018-03-20T11:31:24.113Z,45.30
2018-03-20T11:33:52.332Z,44.20
2018-03-20T11:36:20.548Z,45.00
2018-03-20T11:38:48.780Z,43.50
2018-03-20T11:41:17.002Z,43.80
2018-03-20T11:43:45.237Z,44.20
2018-03-20T11:46:13.445Z,43.50
2018-03-20T11:48:41.682Z,42.30
2018-03-20T11:51:09.897Z,43.80
2018-03-20T11:53:38.131Z,41.00
2018-03-20T11:56:06.357Z,41.30
2018-03-20T11:58:34.581Z,42.00
2018-03-20T12:01:02.812Z,42.00
2018-03-20T12:03:32.104Z,42.90
2018-03-20T12:06:00.329Z,42.80
2018-03-20T12:08:40.404Z,41.40
2018-03-20T12:11:08.648Z,41.10
2018-03-20T12:13:37.181Z,42.10
2018-03-20T12:16:05.404Z,41.70
2018-03-20T12:18:33.624Z,43.10
2018-03-20T12:21:01.960Z,41.10
2018-03-20T12:23:30.176Z,40.60
2018-03-20T12:25:58.403Z,41.40
2018-03-20T12:28:26.634Z,40.90
2018-03-20T12:30:55.629Z,39.60
2018-03-20T12:33:24.608Z,40.10
2018-03-20T12:35:53.097Z,40.00
2018-03-20T12:38:22.084Z,40.40
2018-03-20T12:40:51.080Z,40.50
2018-03-20T12:43:20.061Z,39.50
2018-03-20T12:45:48.292Z,39.60
2018-03-20T12:48:16.511Z,40.80
2018-03-20T12:50:45.512Z,39.90
2018-03-20T12:53:14.501Z,39.80
2018-03-20T12:55:43.504Z,38.10
2018-03-20T12:58:11.724Z,38.10
2018-03-20T13:00:39.965Z,38.80
2018-03-20T13:03:08.185Z,39.60
2018-03-20T13:05:36.417Z,38.40
2018-03-20T13:08:04.633Z,37.20
2018-03-20T13:10:32.865Z,38.40
2018-03-20T13:13:01.111Z,38.10
2018-03-20T13:15:30.087Z,38.70
2018-03-20T13:17:59.088Z,39.00
2018-03-20T13:20:28.080Z,37.90
2018-03-20T13:22:57.081Z,37.20
2018-03-20T13:25:26.070Z,38.60
2018-03-20T13:27:55.064Z,39.10
2018-03-20T13:30:23.285Z,39.20
2018-03-20T13:32:51.524Z,39.70
2018-03-20T13:35:19.740Z,37.80
2018-03-20T13:37:47.999Z,37.20
2018-03-20T13:40:16.233Z,37.60
2018-03-20T13:42:45.223Z,37.90
2018-03-20T13:45:13.443Z,37.90
2018-03-20T13:47:41.672Z,37.30
2018-03-20T13:50:09.884Z,36.70
2018-03-20T13:52:38.124Z,37.20
2018-03-20T13:55:06.342Z,38.10
2018-03-20T13:57:34.604Z,39.10
2018-03-20T14:00:03.671Z,37.70
2018-03-20T14:02:32.653Z,37.70
2018-03-20T14:05:00.880Z,37.70
2018-03-20T14:07:29.109Z,37.70
2018-03-20T14:09:57.334Z,37.50
2018-03-20T14:12:25.568Z,36.30
2018-03-20T14:14:53.792Z,35.10
2018-03-20T14:17:22.028Z,35.20
2018-03-20T14:19:50.249Z,35.90
2018-03-20T14:22:19.253Z,35.80
2018-03-20T14:24:48.264Z,36.60
2018-03-20T14:27:16.473Z,36.60
2018-03-20T14:29:44.705Z,37.20
2018-03-20T14:32:12.933Z,36.30
2018-03-20T14:34:41.160Z,35.90
2018-03-20T14:37:09.384Z,36.30
2018-03-20T14:39:37.629Z,36.40
2018-03-20T14:42:05.845Z,36.80
2018-03-20T14:44:34.839Z,37.10
2018-03-20T14:47:03.820Z,37.40
2018-03-20T14:49:32.052Z,37.40
2018-03-20T14:52:00.272Z,37.80
2018-03-20T14:54:29.277Z,36.70
2018-03-20T14:56:58.574Z,37.00
2018-03-20T14:59:26.779Z,37.00
2018-03-20T15:01:55.038Z,39.50
2018-03-20T15:04:23.481Z,39.10
2018-03-20T15:06:51.958Z,39.70
2018-03-20T15:09:20.194Z,40.00
2018-03-20T15:11:48.408Z,39.40
2018-03-20T15:14:17.413Z,41.10
2018-03-20T15:16:46.388Z,40.60
2018-03-20T15:19:14.616Z,40.60
2018-03-20T15:21:42.841Z,39.50
2018-03-20T15:24:11.075Z,38.60
2018-03-20T15:26:39.289Z,39.00
2018-03-20T15:29:08.293Z,37.90
2018-03-20T15:31:37.280Z,38.40
2018-03-20T15:34:06.320Z,38.70
2018-03-20T15:36:34.496Z,38.60
2018-03-20T15:39:03.009Z,38.90
2018-03-20T15:41:31.222Z,37.90
2018-03-20T15:43:59.452Z,37.90
2018-03-20T15:46:27.688Z,38.10
2018-03-20T15:48:55.912Z,40.60
2018-03-20T15:51:24.912Z,39.80
2018-03-20T15:53:53.904Z,39.80
2018-03-20T15:56:22.939Z,40.40
2018-03-20T15:58:51.957Z,40.40
2018-03-20T16:01:20.188Z,40.00
2018-03-20T16:03:48.460Z,39.20
2018-03-20T16:06:16.648Z,39.30
2018-03-20T16:08:44.865Z,37.50
2018-03-20T16:11:13.092Z,38.10
2018-03-20T16:13:41.314Z,38.00
2018-03-20T16:16:09.545Z,38.90
2018-03-20T16:18:37.802Z,38.40
2018-03-20T16:21:06.076Z,38.90
2018-03-20T16:23:34.333Z,38.30
2018-03-20T16:26:02.566Z,37.70
2018-03-20T16:28:30.801Z,37.10
2018-03-20T16:30:59.029Z,38.20
2018-03-20T16:33:27.261Z,37.90
2018-03-20T16:35:55.579Z,38.70
2018-03-20T16:38:24.564Z,40.40
2018-03-20T16:40:52.796Z,39.70
2018-03-20T16:43:21.016Z,39.50
2018-03-20T16:45:49.283Z,38.80
2018-03-20T16:48:17.473Z,39.40
2018-03-20T16:50:46.467Z,39.40
2018-03-20T16:53:15.456Z,39.00
2018-03-20T16:55:44.441Z,39.50
2018-03-20T16:58:13.444Z,40.20
2018-03-20T17:00:42.428Z,40.40
2018-03-20T17:03:11.486Z,41.00
2018-03-20T17:05:39.689Z,41.00
2018-03-20T17:08:08.684Z,41.50
2018-03-20T17:10:37.671Z,42.30
2018-03-20T17:13:06.669Z,43.60
2018-03-20T17:15:35.655Z,42.90
2018-03-20T17:18:04.657Z,43.20
2018-03-20T17:20:32.900Z,43.10
2018-03-20T17:23:01.132Z,43.40
2018-03-20T17:25:29.353Z,44.00
2018-03-20T17:27:57.579Z,44.10
2018-03-20T17:30:25.800Z,44.00
2018-03-20T17:32:54.038Z,44.30
2018-03-20T17:35:22.248Z,44.20
2018-03-20T17:37:50.485Z,44.70
2018-03-20T17:40:18.704Z,45.20
2018-03-20T17:42:46.953Z,45.40
2018-03-20T17:45:15.182Z,46.00
2018-03-20T17:47:43.589Z,46.20
2018-03-20T17:50:11.805Z,46.50
2018-03-20T17:52:40.389Z,47.20
2018-03-20T17:55:10.196Z,47.40
2018-03-20T17:57:39.205Z,48.10
2018-03-20T18:00:07.427Z,48.10
2018-03-20T18:02:35.656Z,48.50
2018-03-20T18:05:04.652Z,48.60
2018-03-20T18:07:32.871Z,48.60
2018-03-20T18:10:01.101Z,48.70
2018-03-20T18:12:29.320Z,48.00
2018-03-20T18:14:57.554Z,47.10
2018-03-20T18:17:25.781Z,47.20
2018-03-20T18:19:54.020Z,48.30
2018-03-20T18:22:22.253Z,47.50
2018-03-20T18:24:51.250Z,47.60
2018-03-20T18:27:19.588Z,47.40
2018-03-20T18:29:47.813Z,47.20
2018-03-20T18:32:16.029Z,47.00
2018-03-20T18:34:44.262Z,46.90
2018-03-20T18:37:12.527Z,46.60
2018-03-20T18:39:40.732Z,46.90
2018-03-20T18:42:08.952Z,47.30
2018-03-20T18:44:37.953Z,47.90
2018-03-20T18:47:06.977Z,48.20
2018-03-20T18:49:35.201Z,48.10
2018-03-20T18:52:03.438Z,48.70
2018-03-20T18:54:31.664Z,48.40
2018-03-20T18:57:00.652Z,48.60
2018-03-20T18:59:29.648Z,48.50
2018-03-20T19:01:58.635Z,49.40
2018-03-20T19:04:27.636Z,49.60
2018-03-20T19:06:56.620Z,48.50
2018-03-20T19:09:25.665Z,48.50
2018-03-20T19:11:53.844Z,48.40
2018-03-20T19:14:22.081Z,48.50
2018-03-20T19:16:50.337Z,48.50
2018-03-20T19:19:19.324Z,49.20
2018-03-20T19:21:48.320Z,49.70
2018-03-20T19:24:16.535Z,49.70
2018-03-20T19:26:44.773Z,49.60
2018-03-20T19:29:13.768Z,49.40
2018-03-20T19:31:41.997Z,49.40
2018-03-20T19:34:10.211Z,50.10
2018-03-20T19:36:38.447Z,51.20
2018-03-20T19:39:06.672Z,51.60
2018-03-20T19:41:34.905Z,51.90
2018-03-20T19:44:03.126Z,52.20
2018-03-20T19:46:31.350Z,53.00
2018-03-20T19:48:59.568Z,53.40
2018-03-20T19:51:27.801Z,53.70
2018-03-20T19:53:56.038Z,54.60
2018-03-20T19:56:24.263Z,56.40
2018-03-20T19:58:53.239Z,56.10
2018-03-20T20:01:21.464Z,56.00
2018-03-20T20:03:49.705Z,55.70
2018-03-20T20:06:18.740Z,56.80
2018-03-20T20:08:46.928Z,56.90
2018-03-20T20:11:15.164Z,56.90
2018-03-20T20:13:43.382Z,56.80
2018-03-20T20:16:11.600Z,56.80
2018-03-20T20:18:39.836Z,56.80
2018-03-20T20:21:08.057Z,57.00
2018-03-20T20:23:36.288Z,58.20
2018-03-20T20:26:04.861Z,58.70
2018-03-20T20:28:33.064Z,59.30
2018-03-20T20:31:01.276Z,60.20
2018-03-20T20:33:29.517Z,60.30
2018-03-20T20:35:57.736Z,59.90
2018-03-20T20:38:25.959Z,60.30
2018-03-20T20:40:54.186Z,59.60
2018-03-20T20:43:22.421Z,59.50
2018-03-20T20:45:50.628Z,59.30
2018-03-20T20:48:18.865Z,59.10
2018-03-20T20:50:47.076Z,59.00
2018-03-20T20:53:15.843Z,59.10
2018-03-20T20:55:44.160Z,59.50
2018-03-20T20:58:12.408Z,59.90
2018-03-20T21:00:40.643Z,60.10
2018-03-20T21:03:08.878Z,60.20
2018-03-20T21:05:37.100Z,60.20
2018-03-20T21:08:05.344Z,60.60
2018-03-20T21:10:34.329Z,61.80
2018-03-20T21:13:03.337Z,63.30
2018-03-20T21:15:32.324Z,63.80
2018-03-20T21:18:01.324Z,62.70
2018-03-20T21:20:29.554Z,62.60
2018-03-20T21:22:57.790Z,62.80
2018-03-20T21:25:26.004Z,62.90
2018-03-20T21:27:54.267Z,64.80
2018-03-20T21:30:22.468Z,67.90
2018-03-20T21:32:51.464Z,66.00
2018-03-20T21:35:20.474Z,66.20
2018-03-20T21:37:48.692Z,66.00
2018-03-20T21:40:16.965Z,66.00
2018-03-20T21:42:45.188Z,65.90
2018-03-20T21:45:14.197Z,67.30
2018-03-20T21:47:42.420Z,67.30
2018-03-20T21:50:10.656Z,67.70
2018-03-20T21:52:38.884Z,68.40
2018-03-20T21:55:07.895Z,67.60
2018-03-20T21:57:36.882Z,67.70
2018-03-20T22:00:05.900Z,68.50
2018-03-20T22:02:34.126Z,68.30
2018-03-20T22:05:02.356Z,68.60
2018-03-20T22:07:30.593Z,68.70
2018-03-20T22:09:59.597Z,68.70
2018-03-20T22:12:27.832Z,68.70
2018-03-20T22:14:56.069Z,69.50
2018-03-20T22:17:24.296Z,70.00
2018-03-20T22:19:53.307Z,69.50
2018-03-20T22:22:21.532Z,69.40
2018-03-20T22:24:49.783Z,69.20
2018-03-20T22:27:18.015Z,68.90
2018-03-20T22:29:47.049Z,70.00
2018-03-20T22:32:15.316Z,70.00
2018-03-20T22:34:43.534Z,71.30
2018-03-20T22:37:11.752Z,72.90
2018-03-20T22:39:39.996Z,72.50
2018-03-20T22:42:08.992Z,71.50
2018-03-20T22:44:37.992Z,71.40
2018-03-20T22:47:06.239Z,71.40
2018-03-20T22:49:34.460Z,71.80
2018-03-20T22:52:02.706Z,71.50
2018-03-20T22:54:31.702Z,73.90
2018-03-20T22:57:00.711Z,74.00
2018-03-20T22:59:28.938Z,74.00
2018-03-20T23:01:57.180Z,74.90
2018-03-20T23:04:25.409Z,74.70
2018-03-20T23:06:54.413Z,73.90
2018-03-20T23:09:22.641Z,73.90
2018-03-20T23:11:50.892Z,73.60
2018-03-20T23:14:19.111Z,73.60
2018-03-20T23:16:48.116Z,75.40
2018-03-20T23:19:17.397Z,75.60
2018-03-20T23:21:45.631Z,75.60
2018-03-20T23:24:13.859Z,76.60
2018-03-20T23:26:43.141Z,76.30
2018-03-20T23:29:11.356Z,76.20
2018-03-20T23:31:39.901Z,76.00
2018-03-20T23:34:08.122Z,76.40
2018-03-20T23:36:36.362Z,76.00
2018-03-20T23:39:04.584Z,76.90
2018-03-20T23:41:32.829Z,77.80
2018-03-20T23:44:01.054Z,77.60
2018-03-20T23:46:29.303Z,77.60
2018-03-20T23:48:57.605Z,78.50
2018-03-20T23:51:25.805Z,79.00
2018-03-20T23:53:54.051Z,79.40
2018-03-20T23:56:22.279Z,79.50
2018-03-20T23:58:50.524Z,79.70
